Corbett, Oregon
Current Conditions -  °F | °C
As of 12:53 PM on Sunday 21 Dec 2014 (Local Time) from KTTD Reporting Station
Overcast Overcast  
Wind Chill: 56°   Ceiling: 9000
Heat Index: 56°   Visibility: 10mi
Dew Point: 49°   Wind: 12mph
Humidity: 77%   Direction: 230°SW
Pressure: 30.06"   Gusts: NA
Location:  45.53°N, 122.29°W
Report Text: KTTD 212053Z 23010KT 10SM FEW075 OVC090 13/09 A3006 RMK AO2 RAB02E11 SLP178 P0000 60000 T01330094 51011
Loading
Personal Weather Stations






























Interactive Weather Map New forecast layout! Learn more

10-Day Weather Forecast

Advertisements
Track Severe Weather on mobile